createdAt,value
2023-05-20T00:02:30.176Z,13.80
2023-05-20T00:05:16.372Z,13.70
2023-05-20T00:08:04.657Z,13.70
2023-05-20T00:10:49.886Z,13.70
2023-05-20T00:13:36.319Z,13.60
2023-05-20T00:16:24.240Z,13.60
2023-05-20T00:19:12.346Z,13.70
2023-05-20T00:21:58.281Z,13.60
2023-05-20T00:24:44.067Z,13.60
2023-05-20T00:27:29.259Z,13.50
2023-05-20T00:30:15.506Z,13.50
2023-05-20T00:33:08.748Z,13.50
2023-05-20T00:35:54.103Z,13.40
2023-05-20T00:38:39.616Z,13.40
2023-05-20T00:41:25.427Z,13.30
2023-05-20T00:44:10.814Z,13.30
2023-05-20T00:46:58.668Z,13.20
2023-05-20T00:49:50.517Z,13.20
2023-05-20T00:52:38.042Z,13.20
2023-05-20T00:55:23.249Z,13.20
2023-05-20T00:58:08.976Z,13.20
2023-05-20T01:00:55.081Z,13.10
2023-05-20T01:03:40.830Z,13.10
2023-05-20T01:06:28.159Z,13.10
2023-05-20T01:09:15.366Z,13.10
2023-05-20T01:12:04.545Z,13.10
2023-05-20T01:14:57.409Z,13.10
2023-05-20T01:17:53.057Z,13.10
2023-05-20T01:20:39.383Z,13.00
2023-05-20T01:23:37.870Z,13.00
2023-05-20T01:26:27.276Z,13.00
2023-05-20T01:29:13.863Z,13.00
2023-05-20T01:32:04.221Z,13.10
2023-05-20T01:34:54.400Z,13.00
2023-05-20T01:37:41.650Z,13.10
2023-05-20T01:40:27.911Z,13.00
2023-05-20T01:43:16.223Z,13.00
2023-05-20T01:46:06.525Z,13.00
2023-05-20T01:48:55.137Z,12.90
2023-05-20T01:51:41.836Z,12.90
2023-05-20T01:54:28.113Z,12.80
2023-05-20T01:57:14.061Z,12.80
2023-05-20T01:59:59.582Z,12.80
2023-05-20T02:02:45.069Z,12.80
2023-05-20T02:05:31.900Z,12.80
2023-05-20T02:08:18.118Z,12.80
2023-05-20T02:11:06.312Z,12.70
2023-05-20T02:13:51.993Z,12.70
2023-05-20T02:16:37.672Z,12.70
2023-05-20T02:19:23.829Z,12.70
2023-05-20T02:22:09.520Z,12.70
2023-05-20T02:24:55.126Z,12.70
2023-05-20T02:27:40.967Z,12.70
2023-05-20T02:30:27.599Z,12.70
2023-05-20T02:33:13.861Z,12.80
2023-05-20T02:35:59.344Z,12.80
2023-05-20T02:38:45.082Z,12.80
2023-05-20T02:41:30.556Z,12.90
2023-05-20T02:44:16.824Z,12.80
2023-05-20T02:47:02.733Z,12.80
2023-05-20T02:49:48.036Z,12.80
2023-05-20T02:52:33.179Z,12.80
2023-05-20T02:55:18.849Z,12.70
2023-05-20T02:58:04.499Z,12.70
2023-05-20T03:00:53.170Z,12.70
2023-05-20T03:03:40.819Z,12.60
2023-05-20T03:06:26.453Z,12.60
2023-05-20T03:09:11.961Z,12.60
2023-05-20T03:11:58.397Z,12.60
2023-05-20T03:14:46.759Z,12.60
2023-05-20T03:17:32.382Z,12.60
2023-05-20T03:20:17.905Z,12.50
2023-05-20T03:23:04.092Z,12.50
2023-05-20T03:25:49.611Z,12.40
2023-05-20T03:28:36.131Z,12.40
2023-05-20T03:31:21.667Z,12.30
2023-05-20T03:34:07.961Z,12.30
2023-05-20T03:36:55.117Z,12.30
2023-05-20T03:39:43.441Z,12.30
2023-05-20T03:42:28.830Z,12.40
2023-05-20T03:45:15.088Z,12.40
2023-05-20T03:48:08.326Z,12.40
2023-05-20T03:50:55.072Z,12.40
2023-05-20T03:53:41.879Z,12.40
2023-05-20T03:56:30.353Z,12.40
2023-05-20T03:59:16.469Z,12.40
2023-05-20T04:02:01.599Z,12.40
2023-05-20T04:04:47.376Z,12.40
2023-05-20T04:07:32.673Z,12.50
2023-05-20T04:10:20.872Z,12.50
2023-05-20T04:13:06.888Z,12.40
2023-05-20T04:15:56.064Z,12.40
2023-05-20T04:18:42.126Z,12.40
2023-05-20T04:21:28.237Z,12.50
2023-05-20T04:24:13.806Z,12.50
2023-05-20T04:26:59.581Z,12.60
2023-05-20T04:29:47.511Z,12.60
2023-05-20T04:32:37.133Z,12.70
2023-05-20T04:35:26.167Z,12.70
2023-05-20T04:38:13.947Z,12.80
2023-05-20T04:41:00.309Z,12.80
2023-05-20T04:43:45.972Z,12.80
2023-05-20T04:46:31.791Z,12.90
2023-05-20T04:49:20.116Z,12.90
2023-05-20T04:52:06.024Z,12.90
2023-05-20T04:54:51.224Z,13.10
2023-05-20T04:57:39.852Z,13.20
2023-05-20T05:00:25.133Z,13.30
2023-05-20T05:03:13.071Z,13.40
2023-05-20T05:05:59.491Z,13.40
2023-05-20T05:08:47.475Z,13.50
2023-05-20T05:11:34.048Z,13.50
2023-05-20T05:14:19.645Z,13.50
2023-05-20T05:17:05.386Z,13.50
2023-05-20T05:19:50.672Z,13.60
2023-05-20T05:22:37.049Z,13.60
2023-05-20T05:25:22.643Z,13.70
2023-05-20T05:28:07.919Z,13.70
2023-05-20T05:30:57.344Z,13.80
2023-05-20T05:33:42.814Z,13.80
2023-05-20T05:36:28.594Z,13.90
2023-05-20T05:39:14.428Z,14.10
2023-05-20T05:42:00.238Z,14.20
2023-05-20T05:44:46.004Z,14.30
2023-05-20T05:47:32.988Z,14.20
2023-05-20T05:50:19.290Z,14.20
2023-05-20T05:53:04.860Z,14.30
2023-05-20T05:55:51.548Z,14.30
2023-05-20T05:58:40.204Z,14.30
2023-05-20T06:01:26.651Z,14.30
2023-05-20T06:04:12.487Z,14.30
2023-05-20T06:06:58.765Z,14.30
2023-05-20T06:09:44.661Z,14.30
2023-05-20T06:12:30.148Z,14.40
2023-05-20T06:15:15.500Z,14.50
2023-05-20T06:18:00.883Z,14.30
2023-05-20T06:20:46.494Z,14.40
2023-05-20T06:23:32.087Z,14.30
2023-05-20T06:26:21.464Z,14.30
2023-05-20T06:29:07.016Z,14.30
2023-05-20T06:31:52.489Z,14.30
2023-05-20T06:34:38.052Z,14.30
2023-05-20T06:37:26.390Z,14.30
2023-05-20T06:40:13.111Z,14.40
2023-05-20T06:42:59.247Z,14.40
2023-05-20T06:46:12.090Z,14.50
2023-05-20T06:49:03.311Z,14.50
2023-05-20T06:51:48.987Z,14.60
2023-05-20T06:54:39.880Z,14.60
2023-05-20T06:57:29.449Z,14.60
2023-05-20T07:00:15.326Z,14.70
2023-05-20T07:03:01.659Z,14.80
2023-05-20T07:05:47.034Z,14.80
2023-05-20T07:08:32.954Z,14.90
2023-05-20T07:11:21.677Z,14.90
2023-05-20T07:14:08.588Z,14.90
2023-05-20T07:16:56.858Z,15.00
2023-05-20T07:19:43.271Z,15.10
2023-05-20T07:22:29.059Z,15.20
2023-05-20T07:25:21.498Z,15.20
2023-05-20T07:28:08.060Z,15.30
2023-05-20T07:30:57.978Z,15.30
2023-05-20T07:33:45.909Z,15.40
2023-05-20T07:36:32.348Z,15.50
2023-05-20T07:39:22.122Z,15.60
2023-05-20T07:42:07.896Z,15.70
2023-05-20T07:44:53.978Z,15.70
2023-05-20T07:47:43.518Z,15.90
2023-05-20T07:50:28.839Z,15.90
2023-05-20T07:53:14.201Z,16.10
2023-05-20T07:55:59.778Z,16.10
2023-05-20T07:58:53.781Z,16.20
2023-05-20T08:01:45.971Z,16.20
2023-05-20T08:04:36.035Z,16.30
2023-05-20T08:07:22.333Z,16.30
2023-05-20T08:10:12.214Z,16.40
2023-05-20T08:12:58.248Z,16.40
2023-05-20T08:15:43.681Z,16.50
2023-05-20T08:18:29.613Z,16.50
2023-05-20T08:21:17.706Z,16.60
2023-05-20T08:24:05.670Z,16.70
2023-05-20T08:26:52.986Z,16.80
2023-05-20T08:29:44.598Z,17.00
2023-05-20T08:32:30.033Z,17.10
2023-05-20T08:35:15.615Z,17.20
2023-05-20T08:38:02.311Z,17.30
2023-05-20T08:40:53.536Z,17.30
2023-05-20T08:43:39.621Z,17.40
2023-05-20T08:46:26.259Z,17.40
2023-05-20T08:49:14.287Z,17.50
2023-05-20T08:52:01.319Z,17.60
2023-05-20T08:54:49.662Z,17.70
2023-05-20T08:57:36.931Z,17.80
2023-05-20T09:00:27.524Z,17.90
2023-05-20T09:03:12.846Z,18.00
2023-05-20T09:06:09.255Z,18.10
2023-05-20T09:08:54.695Z,18.30
2023-05-20T09:11:41.642Z,18.50
2023-05-20T09:14:30.221Z,18.50
2023-05-20T09:17:25.206Z,18.60
2023-05-20T09:20:11.177Z,18.70
2023-05-20T09:23:04.702Z,18.70
2023-05-20T09:25:54.204Z,18.80
2023-05-20T09:28:41.228Z,19.00
2023-05-20T09:31:34.147Z,19.20
2023-05-20T09:34:21.373Z,19.20
2023-05-20T09:37:08.792Z,19.30
2023-05-20T09:40:01.057Z,19.40
2023-05-20T09:42:53.224Z,19.50
2023-05-20T09:45:38.989Z,19.50
2023-05-20T09:48:25.601Z,19.60
2023-05-20T09:51:11.976Z,19.80
2023-05-20T09:53:58.747Z,19.90
2023-05-20T09:56:46.643Z,20.00
2023-05-20T09:59:33.567Z,20.00
2023-05-20T10:02:20.583Z,20.00
2023-05-20T10:05:11.624Z,20.20
2023-05-20T10:08:16.841Z,20.30
2023-05-20T10:11:08.304Z,20.50
2023-05-20T10:14:30.740Z,20.60
2023-05-20T10:17:51.949Z,20.70
2023-05-20T10:20:48.049Z,20.80
2023-05-20T10:23:33.481Z,21.00
2023-05-20T10:26:19.827Z,21.10
2023-05-20T10:29:18.532Z,21.30
2023-05-20T10:32:05.262Z,21.50
2023-05-20T10:34:53.598Z,21.70
2023-05-20T10:37:44.217Z,21.90
2023-05-20T10:40:29.380Z,22.00
2023-05-20T10:43:27.112Z,22.00
2023-05-20T10:46:32.578Z,22.00
2023-05-20T10:49:27.124Z,22.00
2023-05-20T10:52:20.241Z,22.10
2023-05-20T10:55:06.454Z,22.30
2023-05-20T10:57:52.034Z,22.50
2023-05-20T11:00:39.153Z,22.50
2023-05-20T11:03:26.106Z,22.60
2023-05-20T11:06:18.393Z,22.90
2023-05-20T11:09:06.690Z,22.80
2023-05-20T11:11:53.392Z,22.80
2023-05-20T11:14:39.000Z,22.90
2023-05-20T11:17:24.268Z,23.60
2023-05-20T11:20:14.401Z,24.50
2023-05-20T11:22:59.840Z,25.40
2023-05-20T11:25:45.557Z,26.10
2023-05-20T11:28:33.242Z,27.10
2023-05-20T11:31:19.239Z,27.50
2023-05-20T11:34:04.663Z,28.00
2023-05-20T11:36:59.615Z,28.70
2023-05-20T11:39:44.984Z,29.00
2023-05-20T11:42:32.638Z,29.10
2023-05-20T11:45:18.148Z,29.60
2023-05-20T11:48:05.408Z,29.90
2023-05-20T11:50:53.276Z,29.60
2023-05-20T11:53:47.197Z,29.40
2023-05-20T11:56:41.467Z,30.00
2023-05-20T11:59:27.431Z,30.20
2023-05-20T12:02:15.346Z,30.00
2023-05-20T12:05:03.480Z,30.60
2023-05-20T12:07:49.405Z,31.10
2023-05-20T12:10:35.494Z,30.80
2023-05-20T12:13:21.353Z,30.80
2023-05-20T12:16:07.139Z,31.40
2023-05-20T12:18:52.463Z,31.80
2023-05-20T12:21:37.936Z,31.50
2023-05-20T12:24:23.437Z,30.60
2023-05-20T12:27:09.009Z,30.20
2023-05-20T12:29:54.224Z,30.00
2023-05-20T12:32:39.933Z,30.10
2023-05-20T12:35:36.227Z,31.00
2023-05-20T12:38:21.482Z,30.80
2023-05-20T12:41:07.260Z,30.20
2023-05-20T12:43:54.752Z,29.70
2023-05-20T12:46:40.462Z,29.10
2023-05-20T12:49:26.020Z,28.70
2023-05-20T12:52:21.908Z,28.60
2023-05-20T12:55:13.905Z,29.50
2023-05-20T12:57:59.571Z,29.90
2023-05-20T13:00:48.012Z,30.80
2023-05-20T13:03:33.554Z,31.40
2023-05-20T13:06:18.815Z,31.60
2023-05-20T13:09:04.312Z,31.60
2023-05-20T13:11:50.022Z,31.70
2023-05-20T13:14:35.512Z,31.80
2023-05-20T13:17:21.162Z,31.80
2023-05-20T13:20:07.846Z,32.40
2023-05-20T13:22:55.685Z,33.10
2023-05-20T13:25:41.145Z,32.60
2023-05-20T13:28:26.302Z,32.00
2023-05-20T13:31:11.980Z,31.40
2023-05-20T13:34:00.468Z,31.30
2023-05-20T13:36:47.795Z,31.80
2023-05-20T13:39:33.040Z,32.00
2023-05-20T13:42:22.648Z,32.20
2023-05-20T13:45:08.266Z,32.20
2023-05-20T13:47:53.899Z,31.60
2023-05-20T13:50:39.265Z,31.00
2023-05-20T13:53:24.693Z,30.50
2023-05-20T13:56:10.449Z,30.20
2023-05-20T13:58:56.040Z,30.30
2023-05-20T14:01:45.522Z,30.40
2023-05-20T14:04:31.511Z,29.90
2023-05-20T14:07:17.041Z,29.80
2023-05-20T14:10:02.677Z,29.80
2023-05-20T14:12:48.348Z,30.00
2023-05-20T14:15:33.844Z,30.20
2023-05-20T14:18:19.602Z,31.20
2023-05-20T14:21:05.538Z,32.60
2023-05-20T14:23:51.373Z,33.00
2023-05-20T14:26:44.968Z,34.20
2023-05-20T14:29:30.417Z,35.60
2023-05-20T14:32:15.912Z,36.00
2023-05-20T14:35:01.380Z,35.20
2023-05-20T14:37:47.437Z,34.70
2023-05-20T14:40:33.048Z,34.10
2023-05-20T14:43:18.830Z,33.80
2023-05-20T14:46:10.140Z,34.20
2023-05-20T14:48:55.773Z,34.20
2023-05-20T14:51:42.289Z,33.40
2023-05-20T14:54:27.758Z,33.00
2023-05-20T14:57:13.332Z,32.60
2023-05-20T14:59:58.601Z,32.10
2023-05-20T15:02:45.149Z,32.00
2023-05-20T15:05:33.531Z,32.30
2023-05-20T15:08:19.132Z,32.20
2023-05-20T15:11:04.525Z,32.10
2023-05-20T15:13:51.266Z,31.90
2023-05-20T15:16:36.944Z,31.70
2023-05-20T15:19:22.863Z,31.40
2023-05-20T15:22:08.372Z,31.30
2023-05-20T15:24:53.859Z,31.50
2023-05-20T15:27:40.484Z,31.60
2023-05-20T15:30:26.141Z,31.50
2023-05-20T15:33:16.823Z,31.90
2023-05-20T15:36:02.431Z,32.10
2023-05-20T15:38:47.628Z,32.30
2023-05-20T15:41:33.370Z,32.40
2023-05-20T15:44:19.164Z,32.50
2023-05-20T15:47:06.043Z,32.90
2023-05-20T15:49:52.066Z,33.90
2023-05-20T15:52:40.257Z,35.20
2023-05-20T15:55:25.928Z,36.20
2023-05-20T15:58:14.774Z,37.00
2023-05-20T16:01:00.137Z,36.20
2023-05-20T16:03:45.595Z,34.70
2023-05-20T16:06:31.532Z,33.40
2023-05-20T16:09:17.045Z,32.50
2023-05-20T16:12:03.050Z,32.00
2023-05-20T16:14:50.413Z,31.40
2023-05-20T16:17:37.646Z,30.80
2023-05-20T16:20:23.167Z,30.30
2023-05-20T16:23:08.775Z,30.40
2023-05-20T16:25:54.393Z,30.60
2023-05-20T16:28:39.988Z,30.80
2023-05-20T16:31:27.801Z,31.50
2023-05-20T16:34:14.304Z,32.10
2023-05-20T16:37:02.848Z,32.60
2023-05-20T16:39:48.393Z,33.10
2023-05-20T16:42:34.022Z,33.60
2023-05-20T16:45:19.327Z,34.10
2023-05-20T16:48:05.116Z,34.20
2023-05-20T16:50:50.544Z,33.80
2023-05-20T16:53:36.535Z,34.00
2023-05-20T16:56:23.030Z,34.20
2023-05-20T16:59:08.120Z,34.10
2023-05-20T17:01:53.688Z,33.90
2023-05-20T17:04:39.087Z,33.80
2023-05-20T17:07:24.488Z,33.60
2023-05-20T17:10:10.176Z,33.30
2023-05-20T17:12:58.232Z,33.10
2023-05-20T17:15:43.625Z,32.90
2023-05-20T17:18:29.011Z,32.80
2023-05-20T17:21:15.775Z,32.50
2023-05-20T17:24:01.393Z,31.60
2023-05-20T17:26:46.812Z,31.20
2023-05-20T17:29:32.293Z,31.20
2023-05-20T17:32:18.030Z,31.10
2023-05-20T17:35:03.419Z,31.10
2023-05-20T17:37:48.770Z,30.90
2023-05-20T17:40:34.659Z,30.90
2023-05-20T17:43:20.941Z,30.90
2023-05-20T17:46:06.420Z,30.70
2023-05-20T17:48:51.869Z,30.30
2023-05-20T17:51:37.596Z,30.10
2023-05-20T17:54:23.265Z,30.00
2023-05-20T17:57:09.375Z,30.20
2023-05-20T17:59:55.350Z,30.10
2023-05-20T18:02:46.128Z,30.00
2023-05-20T18:05:31.743Z,30.10
2023-05-20T18:08:19.082Z,30.10
2023-05-20T18:11:04.551Z,29.70
2023-05-20T18:13:50.004Z,29.50
2023-05-20T18:16:38.286Z,29.30
2023-05-20T18:19:24.785Z,28.50
2023-05-20T18:22:12.604Z,27.60
2023-05-20T18:24:58.002Z,27.20
2023-05-20T18:27:44.048Z,27.00
2023-05-20T18:30:29.767Z,26.90
2023-05-20T18:33:15.162Z,26.80
2023-05-20T18:36:03.957Z,26.60
2023-05-20T18:38:52.104Z,26.40
2023-05-20T18:41:46.693Z,26.30
2023-05-20T18:44:32.508Z,26.10
2023-05-20T18:47:18.560Z,25.90
2023-05-20T18:50:04.438Z,25.50
2023-05-20T18:52:52.352Z,25.20
2023-05-20T18:55:37.852Z,24.90
2023-05-20T18:58:23.453Z,24.60
2023-05-20T19:01:08.786Z,24.20
2023-05-20T19:03:54.536Z,23.60
2023-05-20T19:06:40.541Z,23.00
2023-05-20T19:09:26.279Z,22.40
2023-05-20T19:12:11.572Z,22.00
2023-05-20T19:14:57.442Z,21.60
2023-05-20T19:17:42.890Z,21.20
2023-05-20T19:20:28.300Z,21.00
2023-05-20T19:23:13.957Z,20.70
2023-05-20T19:25:59.202Z,20.40
2023-05-20T19:28:44.761Z,20.30
2023-05-20T19:31:30.559Z,20.00
2023-05-20T19:34:16.328Z,19.80
2023-05-20T19:37:04.743Z,19.70
2023-05-20T19:39:50.192Z,19.50
2023-05-20T19:42:35.375Z,19.20
2023-05-20T19:45:21.991Z,19.10
2023-05-20T19:48:08.039Z,18.90
2023-05-20T19:50:53.841Z,18.70
2023-05-20T19:53:39.397Z,18.60
2023-05-20T19:56:33.605Z,18.50
2023-05-20T19:59:19.731Z,18.40
2023-05-20T20:02:06.842Z,18.30
2023-05-20T20:04:52.646Z,18.20
2023-05-20T20:07:38.063Z,18.10
2023-05-20T20:10:23.964Z,18.00
2023-05-20T20:13:10.837Z,17.90
2023-05-20T20:15:56.669Z,17.90
2023-05-20T20:18:42.548Z,17.80
2023-05-20T20:21:28.092Z,17.70
2023-05-20T20:24:13.468Z,17.60
2023-05-20T20:26:59.786Z,17.50
2023-05-20T20:29:44.938Z,17.50
2023-05-20T20:32:30.652Z,17.40
2023-05-20T20:35:16.131Z,17.40
2023-05-20T20:38:08.493Z,17.30
2023-05-20T20:40:55.147Z,17.30
2023-05-20T20:43:42.828Z,17.30
2023-05-20T20:46:28.684Z,17.30
2023-05-20T20:49:13.935Z,17.20
2023-05-20T20:51:59.521Z,17.10
2023-05-20T20:54:45.336Z,17.10
2023-05-20T20:57:35.097Z,17.00
2023-05-20T21:00:23.329Z,17.00
2023-05-20T21:03:08.566Z,16.90
2023-05-20T21:05:53.932Z,16.90
2023-05-20T21:08:39.840Z,16.80
2023-05-20T21:11:28.199Z,16.80
2023-05-20T21:14:13.690Z,16.70
2023-05-20T21:16:59.355Z,16.70
2023-05-20T21:19:47.320Z,16.60
2023-05-20T21:22:32.994Z,16.60
2023-05-20T21:25:18.674Z,16.60
2023-05-20T21:28:03.969Z,16.60
2023-05-20T21:30:49.860Z,16.60
2023-05-20T21:33:35.162Z,16.50
2023-05-20T21:36:21.999Z,16.50
2023-05-20T21:39:07.655Z,16.40
2023-05-20T21:41:53.172Z,16.40
2023-05-20T21:44:41.613Z,16.40
2023-05-20T21:47:27.123Z,16.20
2023-05-20T21:50:12.598Z,16.10
2023-05-20T21:52:58.148Z,16.10
2023-05-20T21:55:43.511Z,16.10
2023-05-20T21:58:29.117Z,16.00
2023-05-20T22:01:14.690Z,16.00
2023-05-20T22:04:00.253Z,15.90
2023-05-20T22:06:48.754Z,15.90
2023-05-20T22:09:34.129Z,15.90
2023-05-20T22:12:20.859Z,15.90
2023-05-20T22:15:07.109Z,15.90
2023-05-20T22:17:52.809Z,15.80
2023-05-20T22:20:38.595Z,15.80
2023-05-20T22:23:23.901Z,15.70
2023-05-20T22:26:09.947Z,15.60
2023-05-20T22:28:55.717Z,15.60
2023-05-20T22:31:41.640Z,15.60
2023-05-20T22:34:27.445Z,15.60
2023-05-20T22:37:12.897Z,15.60
2023-05-20T22:40:01.372Z,15.60
2023-05-20T22:42:46.789Z,15.60
2023-05-20T22:45:32.765Z,15.60
2023-05-20T22:48:22.821Z,15.60
2023-05-20T22:51:09.161Z,15.50
2023-05-20T22:53:56.066Z,15.50
2023-05-20T22:56:41.664Z,15.40
2023-05-20T22:59:32.947Z,15.50
2023-05-20T23:02:18.654Z,15.50
2023-05-20T23:05:04.218Z,15.40
2023-05-20T23:07:52.594Z,15.40
2023-05-20T23:10:38.296Z,15.50
2023-05-20T23:13:23.888Z,15.50
2023-05-20T23:16:09.615Z,15.50
2023-05-20T23:18:55.441Z,15.50
2023-05-20T23:21:40.903Z,15.60
2023-05-20T23:24:27.150Z,15.60
2023-05-20T23:27:12.393Z,15.60
2023-05-20T23:29:58.452Z,15.70
2023-05-20T23:32:44.125Z,15.70
2023-05-20T23:35:30.043Z,15.70
2023-05-20T23:38:16.833Z,15.80
2023-05-20T23:41:02.277Z,15.80
2023-05-20T23:43:47.992Z,15.90
2023-05-20T23:46:33.461Z,15.90
2023-05-20T23:49:22.398Z,16.00
2023-05-20T23:52:07.725Z,16.00
2023-05-20T23:54:53.376Z,16.00
2023-05-20T23:57:39.123Z,16.00
